International Virtual Aviation Organisation

Eastern Europe and Northern Asia MCD

 
URWA 121300Z 12011MPS 3700 -DS VV016 23/M01 Q1022 R09/010070 TEMPO 12012G18MPS 1500 -DS VV007 RMK QFE769/1025
QNH:(hPa/inHg/mmHg)1022 / 30.18 / 767
QFE:(hPa/inHg/mmHg)1024 / 30.25 / 768
Temperature23
Dew Point-1
Visibility1500
WeatherLight Duststorm;Light Duststorm
Cloud CoverVV (1600);
VV (700);
Transition Height600 m./2000 ft.
Transition LevelFL30
SQUAWK